createdAt,value
2023-08-22T00:00:47.394Z,16.25
2023-08-22T00:05:47.312Z,16.2
2023-08-22T00:10:47.266Z,16.19
2023-08-22T00:15:47.617Z,16.16
2023-08-22T00:20:47.474Z,16.16
2023-08-22T00:25:47.289Z,16.17
2023-08-22T00:30:47.833Z,16.19
2023-08-22T00:35:47.278Z,16.17
2023-08-22T00:40:47.377Z,16.16
2023-08-22T00:45:47.737Z,16.17
2023-08-22T00:50:47.473Z,16.19
2023-08-22T00:55:47.335Z,16.18
2023-08-22T01:00:47.558Z,16.15
2023-08-22T01:05:51.408Z,16.03
2023-08-22T01:10:50.432Z,15.86
2023-08-22T01:15:47.774Z,15.73
2023-08-22T01:20:47.369Z,15.65
2023-08-22T01:25:47.370Z,15.58
2023-08-22T01:30:52.497Z,15.5
2023-08-22T01:35:50.442Z,15.35
2023-08-22T01:40:47.902Z,15.25
2023-08-22T01:45:47.593Z,15.2
2023-08-22T01:50:47.427Z,15.23
2023-08-22T01:55:47.405Z,15.32
2023-08-22T02:00:47.406Z,15.37
2023-08-22T02:05:47.406Z,15.32
2023-08-22T02:10:47.386Z,15.3
2023-08-22T02:15:47.406Z,15.29
2023-08-22T02:20:47.587Z,15.24
2023-08-22T02:25:47.575Z,15.17
2023-08-22T02:30:47.382Z,15.09
2023-08-22T02:35:47.381Z,14.96
2023-08-22T02:40:47.495Z,14.85
2023-08-22T02:45:48.603Z,14.81
2023-08-22T02:50:47.528Z,14.76
2023-08-22T02:55:51.391Z,14.77
2023-08-22T03:00:48.783Z,14.8
2023-08-22T03:05:47.432Z,14.83
2023-08-22T03:10:47.429Z,14.75
2023-08-22T03:15:47.412Z,14.67
2023-08-22T03:20:47.464Z,14.56
2023-08-22T03:25:47.440Z,14.45
2023-08-22T03:30:47.514Z,14.36
2023-08-22T03:35:47.523Z,14.34
2023-08-22T03:40:47.490Z,14.33
2023-08-22T03:45:47.965Z,14.27
2023-08-22T03:50:47.567Z,14.21
2023-08-22T03:55:48.291Z,14.12
2023-08-22T04:00:47.682Z,14
2023-08-22T04:05:49.177Z,13.91
2023-08-22T04:10:47.691Z,13.81
2023-08-22T04:15:47.470Z,13.72
2023-08-22T04:20:47.700Z,13.64
2023-08-22T04:25:47.488Z,13.53
2023-08-22T04:30:47.702Z,13.45
2023-08-22T04:35:47.509Z,13.43
2023-08-22T04:40:47.621Z,13.47
2023-08-22T04:45:47.640Z,13.5
2023-08-22T04:50:47.582Z,13.55
2023-08-22T04:55:47.565Z,13.64
2023-08-22T05:00:47.546Z,13.87
2023-08-22T05:05:47.946Z,14.16
2023-08-22T05:10:47.765Z,14.4
2023-08-22T05:15:47.769Z,14.66
2023-08-22T05:20:47.733Z,14.87
2023-08-22T05:25:47.616Z,15.07
2023-08-22T05:30:47.753Z,15.2
2023-08-22T05:35:47.570Z,15.36
2023-08-22T05:40:47.655Z,15.51
2023-08-22T05:45:47.615Z,15.69
2023-08-22T05:50:49.231Z,15.73
2023-08-22T05:55:47.877Z,15.8
2023-08-22T06:00:47.727Z,16.04
2023-08-22T06:05:47.626Z,16.57
2023-08-22T06:10:47.622Z,17.24
2023-08-22T06:15:47.732Z,17.96
2023-08-22T06:20:47.600Z,18.33
2023-08-22T06:25:47.622Z,18.41
2023-08-22T06:30:47.624Z,18.55
2023-08-22T06:35:49.785Z,18.87
2023-08-22T06:40:47.685Z,19.01
2023-08-22T06:45:47.878Z,19.29
2023-08-22T06:50:47.777Z,19.49
2023-08-22T06:55:50.029Z,19.63
2023-08-22T07:00:48.002Z,19.66
2023-08-22T07:05:47.651Z,21.09
2023-08-22T07:10:47.670Z,24.11
2023-08-22T07:15:47.657Z,25.59
2023-08-22T07:20:47.895Z,26.55
2023-08-22T07:25:51.164Z,26.63
2023-08-22T07:30:49.038Z,25.15
2023-08-22T07:35:48.635Z,26.29
2023-08-22T07:40:48.542Z,27.19
2023-08-22T07:45:47.671Z,26.88
2023-08-22T07:50:47.698Z,27.12
2023-08-22T07:55:50.539Z,27.57
2023-08-22T08:00:51.063Z,27.93
2023-08-22T08:05:47.742Z,29.15
2023-08-22T08:10:47.717Z,29.47
2023-08-22T08:15:47.936Z,28.58
2023-08-22T08:20:47.863Z,27.74
2023-08-22T08:25:47.876Z,27.04
2023-08-22T08:30:47.828Z,26.97
2023-08-22T08:35:47.758Z,26.41
2023-08-22T08:40:47.949Z,25.72
2023-08-22T08:45:47.767Z,25.61
2023-08-22T08:50:48.540Z,25.96
2023-08-22T08:55:48.710Z,26.07
2023-08-22T09:00:48.929Z,25.45
2023-08-22T09:05:47.801Z,25.56
2023-08-22T09:10:52.445Z,25.81
2023-08-22T09:15:47.781Z,28
2023-08-22T09:20:48.021Z,29.25
2023-08-22T09:25:47.780Z,28.22
2023-08-22T09:31:00.887Z,26.99
2023-08-22T09:35:47.980Z,27.2
2023-08-22T09:40:53.540Z,27.32
2023-08-22T09:45:47.943Z,27.02
2023-08-22T09:50:47.943Z,27.44
2023-08-22T09:55:48.383Z,28.88
2023-08-22T10:00:49.537Z,27.83
2023-08-22T10:05:49.160Z,27.77
2023-08-22T10:10:48.657Z,27.83
2023-08-22T10:15:48.684Z,29.08
2023-08-22T10:20:47.989Z,29.14
2023-08-22T10:25:56.889Z,28.56
2023-08-22T10:30:59.011Z,29.3
2023-08-22T10:35:57.827Z,28.99
2023-08-22T10:40:56.921Z,28.47
2023-08-22T10:45:51.929Z,27.27
2023-08-22T10:50:48.705Z,27.2
2023-08-22T10:55:47.943Z,26.6
2023-08-22T11:00:48.043Z,26.45
2023-08-22T11:05:47.979Z,26.06
2023-08-22T11:10:47.959Z,26.29
2023-08-22T11:15:48.237Z,26.29
2023-08-22T11:20:56.683Z,26.52
2023-08-22T11:25:47.888Z,26.03
2023-08-22T11:30:47.993Z,26.37
2023-08-22T11:35:48.044Z,26.11
2023-08-22T11:40:50.182Z,25.47
2023-08-22T11:45:53.890Z,25.72
2023-08-22T11:50:48.335Z,26.09
2023-08-22T11:55:50.262Z,26.51
2023-08-22T12:00:48.301Z,26.66
2023-08-22T12:05:49.707Z,26.19
2023-08-22T12:10:48.514Z,26.29
2023-08-22T12:15:48.482Z,26.73
2023-08-22T12:20:49.780Z,27.49
2023-08-22T12:25:48.749Z,26.91
2023-08-22T12:30:48.015Z,26.44
2023-08-22T12:35:47.993Z,26.23
2023-08-22T12:40:48.313Z,26.18
2023-08-22T12:45:48.121Z,25.98
2023-08-22T12:50:48.011Z,26.27
2023-08-22T12:55:48.037Z,26.1
2023-08-22T13:00:48.092Z,25.86
2023-08-22T13:05:48.013Z,25.56
2023-08-22T13:10:48.046Z,25.2
2023-08-22T13:15:48.071Z,25.43
2023-08-22T13:20:48.061Z,25.9
2023-08-22T13:25:48.063Z,25.9
2023-08-22T13:30:48.108Z,26.43
2023-08-22T13:35:48.054Z,28.74
2023-08-22T13:40:48.065Z,29.91
2023-08-22T13:45:48.135Z,31.11
2023-08-22T13:50:48.076Z,31.01
2023-08-22T13:55:48.109Z,30.38
2023-08-22T14:00:48.100Z,29.34
2023-08-22T14:05:48.119Z,29.34
2023-08-22T14:10:48.185Z,29.83
2023-08-22T14:15:48.162Z,29.34
2023-08-22T14:20:50.448Z,27.54
2023-08-22T14:25:49.272Z,27.31
2023-08-22T14:30:48.083Z,28.31
2023-08-22T14:35:48.620Z,28.75
2023-08-22T14:40:56.430Z,28.98
2023-08-22T14:45:48.159Z,29.35
2023-08-22T14:50:48.528Z,29.02
2023-08-22T14:55:58.122Z,29.01
2023-08-22T15:00:49.529Z,28.13
2023-08-22T15:05:48.170Z,28.55
2023-08-22T15:10:48.206Z,28.26
2023-08-22T15:15:48.313Z,27.76
2023-08-22T15:20:48.205Z,27.78
2023-08-22T15:25:49.976Z,27.39
2023-08-22T15:30:48.440Z,27.81
2023-08-22T15:35:56.837Z,27.79
2023-08-22T15:40:53.473Z,28.35
2023-08-22T15:45:48.366Z,27.77
2023-08-22T15:50:48.778Z,28.22
2023-08-22T15:55:48.192Z,28.48
2023-08-22T16:00:48.207Z,28.27
2023-08-22T16:05:48.224Z,27.86
2023-08-22T16:10:48.277Z,27.64
2023-08-22T16:15:50.560Z,27.37
2023-08-22T16:20:49.786Z,27.36
2023-08-22T16:25:49.649Z,27.47
2023-08-22T16:30:53.866Z,27.26
2023-08-22T16:35:54.910Z,27.1
2023-08-22T16:40:48.265Z,26.86
2023-08-22T16:45:48.316Z,26.5
2023-08-22T16:50:49.456Z,26.02
2023-08-22T16:55:49.461Z,25.73
2023-08-22T17:00:48.326Z,26.12
2023-08-22T17:05:50.616Z,26.6
2023-08-22T17:10:48.324Z,26.12
2023-08-22T17:15:48.358Z,25.49
2023-08-22T17:20:48.288Z,25.37
2023-08-22T17:25:48.733Z,24.68
2023-08-22T17:30:48.393Z,24.1
2023-08-22T17:35:48.346Z,23.45
2023-08-22T17:40:48.399Z,23
2023-08-22T17:45:49.624Z,22.75
2023-08-22T17:50:48.415Z,22.47
2023-08-22T17:55:48.364Z,22.19
2023-08-22T18:00:49.613Z,21.98
2023-08-22T18:05:57.551Z,21.69
2023-08-22T18:10:49.326Z,21.38
2023-08-22T18:16:02.852Z,21.03
2023-08-22T18:20:48.605Z,20.7
2023-08-22T18:25:48.420Z,20.35
2023-08-22T18:30:48.360Z,20
2023-08-22T18:35:50.400Z,19.72
2023-08-22T18:40:48.571Z,19.42
2023-08-22T18:45:48.670Z,19.16
2023-08-22T18:50:49.418Z,18.92
2023-08-22T18:55:48.418Z,18.7
2023-08-22T19:00:48.429Z,18.51
2023-08-22T19:05:48.425Z,18.32
2023-08-22T19:10:52.390Z,18.19
2023-08-22T19:15:49.012Z,18
2023-08-22T19:20:49.714Z,17.87
2023-08-22T19:25:48.411Z,17.68
2023-08-22T19:30:48.467Z,17.52
2023-08-22T19:35:48.443Z,17.53
2023-08-22T19:40:50.033Z,17.53
2023-08-22T19:45:48.720Z,17.43
2023-08-22T19:50:48.787Z,17.29
2023-08-22T19:55:49.064Z,17.19
2023-08-22T20:00:49.179Z,17.07
2023-08-22T20:05:48.804Z,16.97
2023-08-22T20:10:48.489Z,16.86
2023-08-22T20:15:48.476Z,16.73
2023-08-22T20:20:50.461Z,16.58
2023-08-22T20:25:48.508Z,16.42
2023-08-22T20:30:53.967Z,16.26
2023-08-22T20:35:52.128Z,16.16
2023-08-22T20:40:48.474Z,15.98
2023-08-22T20:45:48.494Z,15.8
2023-08-22T20:50:48.512Z,15.58
2023-08-22T20:55:48.497Z,15.43
2023-08-22T21:00:48.622Z,15.36
2023-08-22T21:05:48.664Z,15.3
2023-08-22T21:10:48.741Z,15.25
2023-08-22T21:15:48.846Z,15.13
2023-08-22T21:20:48.556Z,14.99
2023-08-22T21:25:48.591Z,14.89
2023-08-22T21:30:51.863Z,14.81
2023-08-22T21:35:48.589Z,14.69
2023-08-22T21:40:52.885Z,14.56
2023-08-22T21:45:48.664Z,14.46
2023-08-22T21:50:48.603Z,14.39
2023-08-22T21:55:48.667Z,14.29
2023-08-22T22:01:02.756Z,14.28
2023-08-22T22:05:48.577Z,14.2
2023-08-22T22:10:48.601Z,14.09
2023-08-22T22:15:48.581Z,14.02
2023-08-22T22:20:56.888Z,14.02
2023-08-22T22:25:48.584Z,14.03
2023-08-22T22:30:48.614Z,13.98
2023-08-22T22:35:48.589Z,13.82
2023-08-22T22:40:48.592Z,13.69
2023-08-22T22:45:48.698Z,13.57
2023-08-22T22:50:48.638Z,13.5
2023-08-22T22:55:48.725Z,13.47
2023-08-22T23:00:48.623Z,13.42
2023-08-22T23:05:48.639Z,13.35
2023-08-22T23:10:48.668Z,13.28
2023-08-22T23:15:48.848Z,13.18
2023-08-22T23:20:48.638Z,13.15
2023-08-22T23:25:52.508Z,13.06
2023-08-22T23:30:48.873Z,13.02
2023-08-22T23:35:48.759Z,13.01
2023-08-22T23:40:48.753Z,13
2023-08-22T23:45:48.674Z,12.97
2023-08-22T23:50:48.682Z,12.86
2023-08-22T23:55:48.618Z,12.77
